Time;durP1;ratioP1;P1;durP2;ratioP2;P2;SDS_P1;SDS_P2;PMS_P1;PMS_P2;Temp;Humidity;BMP_temperature;BMP_pressure;BME280_temperature;BME280_humidity;BME280_pressure;Samples;Min_cycle;Max_cycle;Signal;HPM_P1;HPM_P2
2022/05/13 04:02:40;;;;;;;4.28;3.10;;;;;;;22.58;53.88;100625.22;5603671;31;79786;-55
2022/05/13 04:09:05;;;;;;;5.28;2.87;;;;;;;22.12;53.60;100624.09;5583813;32;33197;-56
2022/05/13 04:18:51;;;;;;;5.82;3.40;;;;;;;22.26;54.45;100638.94;5603221;31;33597;-56
2022/05/13 04:21:53;;;;;;;5.18;3.20;;;;;;;22.31;54.54;100640.59;5603135;31;33692;-56
2022/05/13 04:24:55;;;;;;;6.28;3.67;;;;;;;22.32;56.39;100639.47;5602867;31;34241;-56
2022/05/13 04:27:58;;;;;;;33.78;3.65;;;;;;;22.36;55.38;100640.34;5603151;31;34184;-56
2022/05/13 04:31:00;;;;;;;5.20;3.30;;;;;;;22.40;54.18;100646.69;5603017;31;33160;-56
2022/05/13 04:34:11;;;;;;;4.60;3.55;;;;;;;22.39;56.68;100644.31;5603076;31;34248;-56
2022/05/13 04:37:13;;;;;;;9.40;3.87;;;;;;;22.39;58.25;100650.56;5602799;31;33582;-56
2022/05/13 04:40:15;;;;;;;5.12;3.35;;;;;;;22.20;56.74;100645.00;5602818;31;33573;-56
2022/05/13 04:43:18;;;;;;;6.70;3.75;;;;;;;22.11;57.82;100658.78;5601861;31;33655;-56
2022/05/13 04:46:20;;;;;;;6.12;3.55;;;;;;;22.07;57.38;100647.00;5602764;31;33670;-56
2022/05/13 04:49:22;;;;;;;4.90;3.25;;;;;;;21.92;57.35;100653.22;5597412;31;33658;-57
2022/05/13 04:52:28;;;;;;;5.90;3.65;;;;;;;21.81;56.73;100653.72;5590844;31;34265;-55
2022/05/13 04:55:31;;;;;;;7.35;3.90;;;;;;;21.61;57.00;100624.75;5581719;31;34609;-56
2022/05/13 04:58:34;;;;;;;5.40;3.83;;;;;;;21.66;57.43;100640.87;5594562;31;33762;-56
2022/05/13 05:01:36;;;;;;;7.57;3.97;;;;;;;21.74;58.56;100639.91;5596968;31;33778;-56
2022/05/13 05:04:38;;;;;;;5.68;3.22;;;;;;;21.77;60.03;100646.59;5584894;31;33846;-55
2022/05/13 05:07:41;;;;;;;6.78;3.75;;;;;;;21.80;57.70;100654.09;5597916;31;33579;-56
2022/05/13 05:10:44;;;;;;;4.30;3.60;;;;;;;21.73;58.04;100662.09;5581102;31;32026;-56
2022/05/13 05:13:51;;;;;;;9.13;3.70;;;;;;;21.75;58.28;100668.78;5584881;31;33690;-55
2022/05/13 05:16:53;;;;;;;4.95;3.60;;;;;;;21.83;57.95;100679.91;5581838;31;33693;-56
2022/05/13 05:19:56;;;;;;;7.80;3.80;;;;;;;21.87;60.22;100684.31;5585727;31;32138;-55
2022/05/13 05:22:58;;;;;;;7.40;3.67;;;;;;;21.93;59.40;100679.41;5586749;31;33798;-56
2022/05/13 05:26:01;;;;;;;5.68;3.75;;;;;;;21.91;59.50;100685.19;5581781;31;34358;-56
2022/05/13 05:29:03;;;;;;;7.78;3.65;;;;;;;21.91;58.43;100693.38;5589121;31;33701;-57
2022/05/13 05:32:06;;;;;;;5.22;3.45;;;;;;;21.86;58.48;100696.38;5585297;31;34409;-56
2022/05/13 05:35:15;;;;;;;4.30;3.15;;;;;;;21.92;58.49;100696.88;5569076;31;34172;-56
2022/05/13 05:38:18;;;;;;;5.20;3.17;;;;;;;21.96;57.02;100693.12;5575787;31;34322;-55
2022/05/13 05:41:20;;;;;;;7.85;3.58;;;;;;;21.92;58.33;100692.25;5574735;31;34274;-56
2022/05/13 05:44:22;;;;;;;4.57;3.03;;;;;;;21.91;57.73;100704.28;5574556;31;33621;-57
2022/05/13 05:47:25;;;;;;;4.78;2.85;;;;;;;21.93;55.94;100696.56;5575707;31;33652;-56
2022/05/13 05:50:27;;;;;;;6.75;2.90;;;;;;;21.94;56.89;100700.06;5579823;31;33595;-55
2022/05/13 06:00:12;;;;;;;5.75;2.70;;;;;;;22.07;56.64;100709.78;5582889;31;33313;-56
2022/05/13 06:03:17;;;;;;;3.70;2.47;;;;;;;22.14;55.38;100709.19;5571567;31;33826;-57
2022/05/13 06:06:19;;;;;;;5.68;2.40;;;;;;;22.16;55.33;100709.66;5569691;31;33882;-55
2022/05/13 06:09:22;;;;;;;4.80;2.70;;;;;;;22.27;54.23;100714.25;5577384;31;33594;-56
2022/05/13 06:12:24;;;;;;;8.07;2.83;;;;;;;22.27;53.85;100708.78;5567450;32;32424;-56
2022/05/13 06:15:26;;;;;;;5.28;2.35;;;;;;;22.47;54.20;100714.34;5581325;31;34394;-55
2022/05/13 06:18:29;;;;;;;7.25;2.87;;;;;;;22.59;55.61;100721.66;5574541;31;33685;-56
2022/05/13 06:21:34;;;;;;;4.20;2.70;;;;;;;22.71;54.77;100716.09;5571591;31;33567;-56
2022/05/13 06:24:36;;;;;;;5.47;2.62;;;;;;;22.91;52.88;100714.22;5578876;31;33780;-55
2022/05/13 06:27:39;;;;;;;6.25;2.58;;;;;;;22.97;52.49;100713.62;5578957;31;35418;-56
2022/05/13 06:30:41;;;;;;;4.93;2.58;;;;;;;23.11;53.70;100715.91;5585046;31;34057;-56
2022/05/13 06:37:32;;;;;;;3.80;2.75;;;;;;;23.14;51.33;100704.22;5716478;27;20099;-59
2022/05/13 06:40:34;;;;;;;3.92;2.80;;;;;;;23.21;52.14;100714.53;5401734;32;33188;-59
2022/05/13 06:43:39;;;;;;;3.55;2.50;;;;;;;23.27;52.37;100710.34;5406756;32;33771;-58
2022/05/13 06:46:41;;;;;;;4.87;2.37;;;;;;;23.22;50.79;100710.66;5408893;32;33548;-59
2022/05/13 06:49:43;;;;;;;4.95;2.50;;;;;;;23.28;49.50;100706.50;5401046;32;33621;-59
2022/05/13 06:52:46;;;;;;;4.37;2.12;;;;;;;23.28;51.10;100705.69;5406430;32;34419;-59
2022/05/13 06:55:49;;;;;;;5.45;2.17;;;;;;;23.39;49.59;100702.03;5404359;32;34379;-59
2022/05/13 06:58:52;;;;;;;5.60;2.00;;;;;;;23.51;50.42;100706.59;5404568;32;33327;-58
2022/05/13 07:01:54;;;;;;;2.90;2.15;;;;;;;23.50;48.96;100715.94;5404052;32;34237;-58
2022/05/13 07:04:57;;;;;;;7.15;2.42;;;;;;;23.47;51.25;100724.06;5406303;32;35246;-59
2022/05/13 07:07:59;;;;;;;4.60;2.20;;;;;;;23.42;50.50;100716.94;5416972;32;34332;-59
2022/05/13 07:11:01;;;;;;;3.15;2.20;;;;;;;23.36;49.79;100729.31;5409119;32;33142;-58
2022/05/13 07:14:03;;;;;;;5.50;2.33;;;;;;;23.29;49.59;100727.22;5410050;32;33129;-59
2022/05/13 07:17:07;;;;;;;4.57;2.25;;;;;;;23.38;51.67;100730.56;5397787;32;33727;-59
2022/05/13 07:20:11;;;;;;;4.65;2.50;;;;;;;23.37;49.84;100733.62;5406964;32;33658;-60
2022/05/13 07:23:15;;;;;;;5.00;2.58;;;;;;;23.31;49.87;100730.41;5410035;32;34288;-60
2022/05/13 07:26:17;;;;;;;6.53;2.60;;;;;;;23.30;52.50;100726.06;5406733;32;33238;-59
2022/05/13 07:29:20;;;;;;;5.18;2.53;;;;;;;23.27;47.79;100724.03;5406489;32;33701;-59
2022/05/13 07:32:22;;;;;;;3.30;2.10;;;;;;;23.30;48.51;100714.34;5409787;32;33183;-59
2022/05/13 07:35:24;;;;;;;4.57;2.60;;;;;;;23.25;48.77;100717.38;5413873;32;34419;-59
2022/05/13 07:38:29;;;;;;;8.80;2.62;;;;;;;23.36;49.30;100716.44;5406882;32;33934;-59
2022/05/13 07:41:31;;;;;;;3.60;2.20;;;;;;;23.47;48.71;100710.38;5409068;32;33725;-59
2022/05/13 07:44:34;;;;;;;8.05;2.62;;;;;;;23.61;47.53;100716.94;5406789;32;33687;-59
2022/05/13 07:47:39;;;;;;;2.85;2.40;;;;;;;23.72;48.53;100714.44;5404757;32;33686;-59
2022/05/13 07:50:42;;;;;;;6.53;1.98;;;;;;;23.87;47.61;100720.97;5405148;32;33566;-59
2022/05/13 07:53:44;;;;;;;3.95;2.20;;;;;;;23.92;47.67;100718.75;5408771;32;34368;-59
2022/05/13 07:56:46;;;;;;;2.95;2.20;;;;;;;23.89;46.60;100735.91;5402968;32;33748;-59
2022/05/13 08:03:14;;;;;;;3.20;2.10;;;;;;;23.84;46.31;100730.72;5408051;32;34287;-59
2022/05/13 08:06:17;;;;;;;4.70;2.05;;;;;;;23.80;47.63;100740.00;5413561;32;33677;-59
2022/05/13 08:09:19;;;;;;;3.45;2.20;;;;;;;23.65;46.60;100738.91;5410237;32;33502;-58
2022/05/13 08:12:21;;;;;;;3.78;2.10;;;;;;;23.62;47.43;100740.44;5405002;32;33615;-58
2022/05/13 08:15:24;;;;;;;3.78;2.35;;;;;;;23.62;47.23;100747.84;5405339;32;34663;-59
2022/05/13 08:18:26;;;;;;;4.78;2.10;;;;;;;23.54;47.29;100754.31;5407983;32;34420;-58
2022/05/13 08:21:29;;;;;;;3.47;2.22;;;;;;;23.54;47.31;100752.37;5407666;32;33592;-59
2022/05/13 08:24:31;;;;;;;3.03;2.08;;;;;;;23.50;48.53;100770.66;5404567;32;33973;-59
2022/05/13 08:27:34;;;;;;;3.90;2.00;;;;;;;23.33;48.62;100766.37;5409161;32;33665;-59
2022/05/13 08:30:39;;;;;;;3.58;2.00;;;;;;;23.30;49.02;100769.03;5405893;32;34385;-59
2022/05/13 08:33:42;;;;;;;8.90;2.37;;;;;;;23.42;50.90;100766.97;5403210;32;33691;-59
2022/05/13 08:36:50;;;;;;;9.95;2.17;;;;;;;23.50;48.80;100764.38;5404486;32;34312;-59
2022/05/13 08:39:52;;;;;;;3.72;2.65;;;;;;;23.38;49.29;100766.13;5403431;32;32099;-58
2022/05/13 08:42:55;;;;;;;25.27;3.60;;;;;;;23.38;49.06;100763.38;5405590;32;33529;-59
2022/05/13 08:46:29;;;;;;;18.30;2.78;;;;;;;23.36;50.96;100771.12;5409206;32;34203;-59
2022/05/13 08:49:46;;;;;;;6.65;2.60;;;;;;;23.34;51.04;100764.44;5408927;32;33783;-59
2022/05/13 08:53:11;;;;;;;7.00;2.28;;;;;;;23.37;50.79;100766.47;5407256;32;34244;-59
2022/05/13 08:56:21;;;;;;;8.65;2.58;;;;;;;23.42;51.23;100771.66;5408048;32;34338;-60
2022/05/13 08:59:48;;;;;;;5.45;2.90;;;;;;;23.33;50.09;100760.91;5413479;32;34243;-58
2022/05/13 09:02:57;;;;;;;4.15;2.62;;;;;;;23.34;51.16;100759.75;5407542;32;33736;-59
2022/05/13 09:06:32;;;;;;;3.58;2.30;;;;;;;23.35;51.18;100755.87;5406678;32;33637;-58
2022/05/13 09:09:35;;;;;;;;;;;;;;;23.49;51.53;100744.44;5405671;32;33680;-58
2022/05/13 09:12:45;;;;;;;13.40;2.60;;;;;;;23.62;51.40;100751.38;5406545;32;33730;-59
2022/05/13 09:15:55;;;;;;;6.65;2.80;;;;;;;23.64;50.70;100743.59;5414613;32;33746;-59
2022/05/13 09:19:03;;;;;;;3.90;2.30;;;;;;;23.68;50.34;100743.72;5412764;32;34337;-59
2022/05/13 09:22:08;;;;;;;6.10;2.83;;;;;;;23.63;50.66;100735.72;5409734;32;33038;-58
2022/05/13 09:25:21;;;;;;;6.67;2.60;;;;;;;23.65;50.69;100738.91;5403903;32;33632;-58
2022/05/13 09:28:26;;;;;;;4.75;2.33;;;;;;;23.80;51.55;100743.53;5414687;32;33639;-59
2022/05/13 09:31:30;;;;;;;13.48;3.37;;;;;;;23.75;49.75;100732.09;5402593;32;33691;-59
2022/05/13 09:34:57;;;;;;;6.65;3.08;;;;;;;23.92;52.26;100737.91;5408252;32;33349;-60
2022/05/13 09:38:12;;;;;;;2.95;2.50;;;;;;;23.90;51.16;100734.72;5411281;32;33999;-59
2022/05/13 09:41:31;;;;;;;4.32;2.70;;;;;;;23.91;50.51;100728.13;5407251;32;33753;-59
2022/05/13 09:44:33;;;;;;;11.82;3.00;;;;;;;23.98;51.98;100735.69;5403585;32;34350;-59
2022/05/13 09:47:36;;;;;;;7.15;2.70;;;;;;;24.05;51.87;100724.84;5406984;32;34376;-59
2022/05/13 09:50:48;;;;;;;5.62;2.65;;;;;;;24.05;49.90;100732.28;5413097;32;33422;-59
2022/05/13 09:54:15;;;;;;;4.22;2.08;;;;;;;24.06;51.45;100737.38;5407398;32;33628;-59
2022/05/13 09:57:34;;;;;;;4.57;2.85;;;;;;;24.07;51.56;100739.00;5405292;32;34376;-59
2022/05/13 10:00:40;;;;;;;8.45;2.65;;;;;;;24.18;51.79;100739.19;5412239;32;33775;-59
2022/05/13 10:03:58;;;;;;;;;;;;;;;24.18;51.26;100733.69;5415261;32;33759;-59
2022/05/13 10:07:04;;;;;;;4.35;2.60;;;;;;;24.26;51.39;100745.56;5407462;32;34170;-59
2022/05/13 10:17:02;;;;;;;5.05;2.58;;;;;;;24.12;52.38;100738.69;5407990;32;33852;-58
2022/05/13 10:20:10;;;;;;;5.82;2.65;;;;;;;23.90;52.35;100742.16;5405938;32;33688;-59
2022/05/13 10:23:19;;;;;;;5.93;3.30;;;;;;;23.87;52.82;100740.16;5403340;32;33856;-58
2022/05/13 10:26:29;;;;;;;3.95;3.05;;;;;;;23.94;53.80;100739.50;5413547;32;34219;-59
2022/05/13 10:29:45;;;;;;;4.37;2.80;;;;;;;24.15;54.01;100737.97;5410622;32;33493;-59
2022/05/13 10:32:58;;;;;;;3.95;2.50;;;;;;;24.10;53.03;100738.25;5407552;32;33672;-59
2022/05/13 10:36:22;;;;;;;4.00;2.95;;;;;;;23.98;53.21;100738.44;5403610;32;33712;-59
2022/05/13 10:39:44;;;;;;;5.20;3.00;;;;;;;23.97;53.11;100733.28;5405673;32;33337;-59
2022/05/13 10:43:21;;;;;;;4.80;3.00;;;;;;;23.95;52.85;100732.88;5400953;32;34540;-59
2022/05/13 10:46:35;;;;;;;6.03;2.80;;;;;;;23.91;52.44;100725.37;5401664;32;34164;-58
2022/05/13 10:49:58;;;;;;;4.97;2.92;;;;;;;23.97;52.62;100714.91;5400799;32;34453;-59
2022/05/13 10:53:13;;;;;;;3.83;2.90;;;;;;;24.13;52.78;100715.59;5407223;32;34559;-58
2022/05/13 10:56:34;;;;;;;6.78;3.30;;;;;;;24.24;52.36;100715.81;5400535;32;33750;-59
2022/05/13 11:00:05;;;;;;;8.48;3.20;;;;;;;24.25;51.31;100719.34;5413623;32;34285;-59
2022/05/13 11:03:27;;;;;;;6.45;3.22;;;;;;;24.19;50.94;100712.56;5403612;32;33778;-59
2022/05/13 11:06:42;;;;;;;5.12;2.92;;;;;;;24.19;51.76;100718.06;5407608;32;34268;-58
2022/05/13 11:09:47;;;;;;;6.32;3.00;;;;;;;24.04;52.05;100711.50;5410555;32;34370;-58
2022/05/13 11:12:58;;;;;;;4.60;3.10;;;;;;;24.05;52.48;100711.16;5409527;32;33762;-59
2022/05/13 11:16:07;;;;;;;4.28;2.72;;;;;;;24.10;52.04;100715.53;5402692;32;33648;-59
2022/05/13 11:19:28;;;;;;;7.85;3.12;;;;;;;23.83;51.97;100720.91;5397815;32;33646;-58
2022/05/13 11:22:42;;;;;;;5.85;3.10;;;;;;;23.81;53.37;100709.56;5403915;32;33843;-59
2022/05/13 11:25:56;;;;;;;3.42;2.65;;;;;;;23.85;53.22;100704.94;5406248;32;34450;-59
2022/05/13 11:29:13;;;;;;;4.20;2.85;;;;;;;23.94;52.02;100699.25;5399758;32;34546;-59
2022/05/13 11:32:43;;;;;;;5.05;2.62;;;;;;;23.99;53.94;100687.97;5410751;32;33787;-59
2022/05/13 11:36:13;;;;;;;4.85;2.85;;;;;;;24.01;54.11;100691.16;5416139;32;33647;-59
2022/05/13 11:39:18;;;;;;;9.48;3.03;;;;;;;24.14;50.83;100687.06;5415976;32;34293;-59
2022/05/13 11:46:38;;;;;;;4.82;3.40;;;;;;;24.12;50.19;100683.12;5403968;32;33830;-59
2022/05/13 11:49:44;;;;;;;7.53;2.70;;;;;;;24.14;49.26;100687.06;5404623;32;34440;-59
2022/05/13 11:52:48;;;;;;;4.60;2.87;;;;;;;24.21;49.73;100694.63;5415841;32;32434;-59
2022/05/13 11:55:51;;;;;;;5.53;2.95;;;;;;;24.18;50.15;100687.13;5415857;32;33709;-59
2022/05/13 11:58:58;;;;;;;4.35;2.83;;;;;;;24.19;50.33;100683.22;5414253;32;33328;-59
2022/05/13 12:02:29;;;;;;;6.62;2.62;;;;;;;24.26;50.47;100675.13;5399286;32;33774;-59
2022/05/13 12:05:37;;;;;;;7.50;2.60;;;;;;;24.28;51.18;100689.28;5397944;32;34082;-59
2022/05/13 12:08:57;;;;;;;3.85;2.30;;;;;;;24.10;48.13;100685.41;5397678;33;34432;-59
2022/05/13 12:12:19;;;;;;;4.72;2.58;;;;;;;23.95;49.26;100687.13;5401318;32;33803;-59
2022/05/13 12:15:44;;;;;;;2.45;2.20;;;;;;;23.84;49.33;100699.81;5409014;32;33817;-59
2022/05/13 12:19:19;;;;;;;4.43;2.45;;;;;;;23.68;50.16;100710.84;5415465;32;33710;-59
2022/05/13 12:22:30;;;;;;;3.83;2.50;;;;;;;23.68;49.30;100697.97;5416354;32;33830;-59
2022/05/13 12:25:36;;;;;;;4.32;2.50;;;;;;;23.56;50.45;100700.81;5418581;32;33625;-58
2022/05/13 12:29:09;;;;;;;3.67;2.28;;;;;;;23.59;50.03;100707.50;5418145;32;34435;-58
2022/05/13 12:32:23;;;;;;;10.02;2.47;;;;;;;23.58;49.83;100700.47;5397110;32;33583;-59
2022/05/13 12:39:00;;;;;;;4.45;2.22;;;;;;;23.43;48.02;100691.94;5418136;32;33281;-59
2022/05/13 12:42:11;;;;;;;5.05;2.33;;;;;;;23.50;48.78;100688.56;5418590;32;33725;-59
2022/05/13 12:45:45;;;;;;;5.50;2.17;;;;;;;23.55;48.64;100690.25;5418671;32;34341;-59
2022/05/13 12:49:09;;;;;;;3.58;2.33;;;;;;;23.50;47.86;100693.25;5418110;32;33771;-59
2022/05/13 12:52:27;;;;;;;3.60;2.10;;;;;;;23.56;48.32;100683.59;5417837;32;33652;-59
2022/05/13 12:55:37;;;;;;;5.12;2.40;;;;;;;23.53;47.51;100656.97;5409371;32;33689;-59
2022/05/13 12:58:45;;;;;;;5.53;2.45;;;;;;;23.63;49.35;100659.09;5401352;32;34409;-59
2022/05/13 13:01:56;;;;;;;4.90;2.30;;;;;;;23.58;46.46;100671.16;5400699;32;33727;-59
2022/05/13 13:05:19;;;;;;;7.03;2.70;;;;;;;23.63;47.14;100670.06;5414472;32;33698;-59
2022/05/13 13:08:22;;;;;;;3.58;2.30;;;;;;;23.58;50.64;100670.38;5399754;33;33345;-59
2022/05/13 13:11:37;;;;;;;4.15;2.08;;;;;;;23.61;46.29;100664.97;5399874;33;33230;-59
2022/05/13 13:14:55;;;;;;;6.05;3.00;;;;;;;23.52;45.49;100663.59;5399661;33;33672;-59
2022/05/13 13:18:04;;;;;;;7.65;3.00;;;;;;;23.42;47.05;100665.75;5415206;32;33668;-59
2022/05/13 13:21:10;;;;;;;8.77;3.35;;;;;;;23.38;47.83;100658.63;5418002;32;34366;-59
2022/05/13 13:24:20;;;;;;;5.53;2.00;;;;;;;23.40;48.27;100650.84;5404640;32;34387;-60
2022/05/13 13:27:28;;;;;;;4.03;2.33;;;;;;;23.26;47.61;100656.03;5404377;32;33830;-59
2022/05/13 13:30:32;;;;;;;4.90;2.42;;;;;;;23.10;47.90;100653.34;5413273;32;33640;-59
2022/05/13 13:33:46;;;;;;;4.15;1.77;;;;;;;23.03;48.97;100636.78;5408566;32;33650;-59
2022/05/13 13:36:49;;;;;;;2.30;1.55;;;;;;;23.04;48.08;100633.69;5417981;32;33688;-59
2022/05/13 13:40:16;;;;;;;3.42;1.67;;;;;;;23.10;48.84;100626.78;5417957;32;34159;-59
2022/05/13 13:43:24;;;;;;;10.80;1.95;;;;;;;23.12;47.95;100631.91;5409972;32;34352;-59
2022/05/13 13:46:40;;;;;;;9.98;2.58;;;;;;;23.14;48.98;100627.66;5403746;32;33868;-59
2022/05/13 13:49:48;;;;;;;3.90;1.67;;;;;;;23.23;49.36;100621.97;5404245;32;34305;-59
2022/05/13 13:52:51;;;;;;;8.20;1.55;;;;;;;23.23;47.84;100605.56;5405030;32;34331;-59
2022/05/13 13:55:59;;;;;;;4.70;1.40;;;;;;;23.28;48.77;100601.75;5399494;33;33774;-59
2022/05/13 13:59:23;;;;;;;6.82;1.33;;;;;;;23.15;47.88;100590.19;5399413;33;33799;-59
2022/05/13 14:03:03;;;;;;;4.22;1.50;;;;;;;23.16;49.48;100580.81;5407958;32;33640;-59
2022/05/13 14:06:07;;;;;;;5.57;1.50;;;;;;;23.16;48.85;100569.88;5403514;32;33606;-59
2022/05/13 14:09:17;;;;;;;1.52;1.12;;;;;;;23.19;47.81;100575.41;5417732;32;34331;-59
2022/05/13 14:12:22;;;;;;;5.22;1.62;;;;;;;23.19;47.70;100574.62;5399755;32;34410;-59
2022/05/13 14:15:44;;;;;;;4.07;1.67;;;;;;;23.16;46.92;100581.59;5400156;32;33762;-59
2022/05/13 14:18:49;;;;;;;6.75;1.58;;;;;;;23.02;50.41;100599.69;5415496;32;33783;-59
2022/05/13 14:22:04;;;;;;;2.12;1.20;;;;;;;22.88;48.34;100595.47;5409206;32;33943;-59
2022/05/13 14:25:12;;;;;;;5.10;1.27;;;;;;;22.70;48.64;100591.53;5391577;32;33758;-59
2022/05/13 14:28:17;;;;;;;10.45;1.80;;;;;;;22.72;49.39;100589.25;5399134;32;34402;-59
2022/05/13 14:31:31;;;;;;;3.75;1.40;;;;;;;22.71;50.14;100593.13;5412863;32;34485;-59
2022/05/13 14:34:34;;;;;;;1.77;1.40;;;;;;;22.74;49.96;100604.13;5405521;32;33943;-59
2022/05/13 14:37:49;;;;;;;3.65;1.40;;;;;;;22.75;51.18;100588.53;5410611;32;33362;-58
2022/05/13 14:40:52;;;;;;;17.92;2.20;;;;;;;22.80;50.33;100585.50;5410830;32;33797;-59
2022/05/13 14:43:57;;;;;;;3.45;1.55;;;;;;;22.80;50.38;100552.72;5405105;32;33827;-59
2022/05/13 14:47:02;;;;;;;4.47;1.92;;;;;;;22.91;52.23;100540.09;5398214;33;33855;-59
2022/05/13 14:50:09;;;;;;;3.12;1.80;;;;;;;22.93;51.64;100531.53;5399084;33;33458;-59
2022/05/13 14:53:17;;;;;;;3.22;1.50;;;;;;;22.96;51.80;100525.34;5399106;33;33762;-59
2022/05/13 14:56:28;;;;;;;4.72;2.00;;;;;;;22.88;50.52;100526.31;5398912;33;33666;-58
2022/05/13 14:59:36;;;;;;;3.05;1.87;;;;;;;22.93;51.42;100532.31;5399063;33;33634;-59
2022/05/13 15:02:45;;;;;;;4.40;1.90;;;;;;;22.98;53.02;100544.94;5398958;33;33694;-59
2022/05/13 15:05:48;;;;;;;4.60;2.00;;;;;;;22.94;52.96;100535.84;5398907;33;34245;-60
2022/05/13 15:08:52;;;;;;;6.50;2.20;;;;;;;22.95;53.08;100519.09;5399018;33;34526;-59
2022/05/13 15:12:02;;;;;;;5.93;2.10;;;;;;;23.04;53.22;100529.00;5385694;33;34272;-59
